This is the latest recevied weather packets stored in our database for station/object KE4AMH. If no packets are shown the sender has not sent any weather packets the latest 10 day(s).
| Time | Temp. | Humidity | Pressure | Rain* | Wind** | Luminosity | Snow |
|---|---|---|---|---|---|---|---|
| 1778185000 | 24.44° C | 68% | 1009.4 hPa | 0 mm | - | 44 W/m² | - |
| 1778184697 | 24.44° C | 66% | 1009.5 hPa | 0 mm | - | 57 W/m² | - |
| 1778184393 | 24.44° C | 67% | 1009.6 hPa | 0 mm | - | 98 W/m² | - |
| 1778184089 | 24.44° C | 69% | 1009.5 hPa | 0 mm | - | 313 W/m² | - |
| 1778183786 | 25° C | 69% | 1009.4 hPa | 0 mm | - | 657 W/m² | - |
| 1778183483 | 24.44° C | 71% | 1009.6 hPa | 0 mm | - | 566 W/m² | - |
| 1778183180 | 24.44° C | 71% | 1009.4 hPa | 0 mm | - | 667 W/m² | - |
| 1778182875 | 25° C | 71% | 1009.6 hPa | 0 mm | - | 387 W/m² | - |
| 1778182573 | 24.44° C | 70% | 1009.8 hPa | 0 mm | - | 680 W/m² | - |
| 1778182270 | 24.44° C | 72% | 1009.5 hPa | 0 mm | - | 676 W/m² | - |
| 1778181966 | 24.44° C | 73% | 1009.5 hPa | 0 mm | - | 678 W/m² | - |
| 1778181663 | 25° C | 71% | 1009.6 hPa | 0 mm | - | 618 W/m² | - |
| 1778181358 | 24.44° C | 74% | 1009.8 hPa | 0 mm | - | 712 W/m² | - |
| 1778181055 | 23.33° C | 78% | 1009.6 hPa | 0 mm | - | 707 W/m² | - |
| 1778180753 | 22.78° C | 81% | 1009.7 hPa | 0 mm | - | 124 W/m² | - |
| 1778180451 | 23.33° C | 80% | 1009.5 hPa | 0 mm | - | 91 W/m² | - |
| 1778180149 | 23.89° C | 81% | 1009.5 hPa | 0 mm | - | 240 W/m² | - |
| 1778179845 | 25.56° C | 78% | 1009.6 hPa | 0 mm | - | 587 W/m² | - |
| 1778179544 | 24.44° C | 80% | 1009.8 hPa | 0 mm | - | 316 W/m² | - |
| 1778179242 | 24.44° C | 80% | 1009.9 hPa | 0 mm | - | 596 W/m² | - |
| 1778178937 | 23.89° C | 81% | 1009.9 hPa | 0 mm | - | 620 W/m² | - |
| 1778178634 | 23.89° C | 82% | 1009.8 hPa | 0 mm | - | 542 W/m² | - |
| 1778178331 | 23.89° C | 84% | 1010 hPa | 0 mm | - | 350 W/m² | - |
| 1778178027 | 23.89° C | 85% | 1009.8 hPa | 0 mm | - | 664 W/m² | - |
| 1778177724 | 23.33° C | 85% | 1010 hPa | 0 mm | - | 537 W/m² | - |
* Rain latest hour (hover to see other rain measurements)
** Current wind speed in m/s (hover to see current wind gust speed)